Latest Weather Observations for Roebourne Airport

IDW60801

Issued at 5:23 am WST Saturday 19 September 2020 (issued every 10 minutes, with the page automatically refreshed every 10 minutes)

About weather observations | Map of weather stations | Latest weather observations for WA | Other Formats
Station Details ID: 004090 Name: ROEBOURNE AERO Lat: -20.76 Lon: 117.16 Height: 10.7 m
Data from the previous 72 hours. | See also: Recent months at Roebourne Airport
Date/Time
WST
Temp
°C
App
Temp
°C
Dew
Point
°C
Rel
Hum
%
Delta-T
°C
Wind Press
QNH
hPa
Press
MSL
hPa
Rain since
9am
mm
Dir  Spd
km/h
Gust
km/h
Spd
kts
Gust
kts
19/05:00am 18.7 19.5 17.2 91 0.9 SW 9 11 5 6 1011.9 1011.9 0.0
19/04:30am 17.8 19.2 14.5 81 1.9 CALM 0 0 0 0 1011.5 1011.5 0.0
19/04:00am 17.9 19.0 15.5 86 1.4 WSW 4 7 2 4 1011.4 1011.4 0.0
19/03:30am 17.5 18.7 13.8 79 2.1 CALM 0 0 0 0 1011.5 1011.5 0.0
19/03:00am 19.3 20.2 16.7 85 1.6 SW 7 7 4 4 1011.6 1011.6 0.0
19/02:30am 19.2 19.6 16.2 83 1.8 WSW 9 11 5 6 1011.7 1011.7 0.0
19/02:00am 19.1 19.7 15.8 81 2.0 WSW 7 9 4 5 1012.0 1012.0 0.0
19/01:30am 18.7 19.4 15.6 82 1.8 SW 6 7 3 4 1012.0 1012.0 0.0
19/01:00am 18.7 19.1 14.8 78 2.3 WSW 6 6 3 3 1012.1 1012.1 0.0
19/12:30am 18.8 19.1 14.5 76 2.5 WSW 6 7 3 4 1012.3 1012.3 0.0
19/12:00am 19.9 20.2 14.9 73 2.9 W 7 9 4 5 1012.4 1012.4 0.0
 
Date/Time
WST
Temp
°C
App
Temp
°C
Dew
Point
°C
Rel
Hum
%
Delta-T
°C
Wind Press
QNH
hPa
Press
MSL
hPa
Rain since
9am
mm
Dir  Spd
km/h
Gust
km/h
Spd
kts
Gust
kts
18/11:30pm 20.7 21.3 16.7 78 2.4 W 9 9 5 5 1012.7 1012.7 0.0
18/11:00pm 20.8 22.0 16.8 78 2.4 NNW 6 6 3 3 1012.8 1012.8 0.0
18/10:30pm 21.0 21.9 16.2 74 2.9 NNW 6 6 3 3 1012.9 1012.9 0.0
18/10:00pm 21.7 22.8 17.1 75 2.8 NNW 7 7 4 4 1012.9 1012.9 0.0
18/09:30pm 21.8 22.9 17.2 75 2.8 NNW 7 7 4 4 1012.8 1012.8 0.0
18/09:00pm 22.1 23.2 17.0 73 3.1 N 7 7 4 4 1012.7 1012.7 0.0
18/08:30pm 22.4 23.4 16.9 71 3.4 N 7 7 4 4 1012.5 1012.5 0.0
18/08:00pm 22.9 24.2 17.1 70 3.6 N 6 7 3 4 1012.4 1012.4 0.0
18/07:30pm 23.5 24.3 17.3 68 3.8 N 9 9 5 5 1012.4 1012.4 0.0
18/07:00pm 23.7 24.5 17.4 68 3.9 NNE 9 9 5 5 1012.1 1012.1 0.0
18/06:30pm 24.3 24.8 17.5 66 4.2 NNE 11 13 6 7 1011.7 1011.7 0.0
18/06:00pm 24.9 24.6 17.4 63 4.7 NNE 15 19 8 10 1011.5 1011.5 0.0
18/05:30pm 25.7 25.4 17.4 60 5.2 NNE 15 20 8 11 1011.4 1011.4 0.0
18/05:00pm 26.5 25.3 17.0 56 5.9 NNE 19 26 10 14 1011.2 1011.2 0.0
18/04:30pm 26.7 25.1 16.6 54 6.3 NNE 20 28 11 15 1011.2 1011.2 0.0
18/04:00pm 27.1 25.3 16.1 51 6.8 NNE 20 28 11 15 1011.5 1011.5 0.0
18/03:30pm 27.3 24.9 15.3 48 7.3 NNE 22 28 12 15 1011.7 1011.7 0.0
18/03:00pm 27.8 24.9 14.1 43 8.2 NE 22 32 12 17 1011.8 1011.8 0.0
18/02:30pm 28.2 24.8 13.7 41 8.6 NE 24 33 13 18 1012.1 1012.1 0.0
18/02:00pm 28.4 24.7 12.7 38 9.2 NE 24 35 13 19 1012.4 1012.4 0.0
18/01:30pm 28.9 24.7 12.3 36 9.7 NE 26 37 14 20 1012.9 1012.9 0.0
18/01:00pm 29.7 24.9 11.7 33 10.4 NE 28 35 15 19 1013.3 1013.3 0.0
18/12:30pm 29.5 24.4 10.6 31 10.8 NE 28 39 15 21 1013.8 1013.7 0.0
18/12:00pm 29.6 23.7 7.5 25 12.0 ENE 28 43 15 23 1014.4 1014.3 0.0
18/11:30am 29.4 22.8 6.1 23 12.3 ENE 30 43 16 23 1014.9 1014.8 0.0
18/11:00am 28.5 21.6 4.7 22 12.2 ENE 30 43 16 23 1015.1 1015.0 0.0
18/10:30am 27.9 20.7 4.9 23 11.8 ENE 32 43 17 23 1015.3 1015.2 0.0
18/10:00am 27.8 19.5 2.1 19 12.5 ENE 35 46 19 25 1015.4 1015.3 0.0
18/09:30am 27.6 20.0 2.6 20 12.3 ENE 32 41 17 22 1015.7 1015.6 0.0
18/09:00am 26.9 19.3 0.6 18 12.4 ENE 30 39 16 21 1015.7 1015.6 0.0
18/08:30am 26.0 17.8 -0.9 17 12.3 E 32 41 17 22 1015.5 1015.4 0.0
18/08:00am 25.2 17.4 -0.8 18 11.8 E 30 35 16 19 1015.3 1015.2 0.0
18/07:30am 24.0 17.8 -0.3 20 11.0 E 22 28 12 15 1014.7 1014.6 0.0
18/07:00am 22.0 16.4 -0.1 23 9.9 E 19 20 10 11 1014.0 1013.9 0.0
18/06:30am 20.4 15.1 -0.3 25 9.1 ESE 17 22 9 12 1013.4 1013.4 0.0
18/06:00am 20.2 15.3 -0.4 25 9.0 ESE 15 19 8 10 1013.0 1013.0 0.0
18/05:30am 21.2 15.6 -0.1 24 9.5 E 19 22 10 12 1012.4 1012.4 0.0
18/05:00am 22.0 16.2 -0.1 23 9.9 ESE 20 24 11 13 1012.0 1012.0 0.0
18/04:30am 22.9 16.8 0.1 22 10.3 ESE 22 30 12 16 1011.6 1011.6 0.0
18/04:00am 22.6 16.3 1.6 25 9.8 ESE 24 28 13 15 1011.4 1011.4 0.0
18/03:30am 22.1 17.1 3.7 30 8.9 ESE 19 20 10 11 1011.4 1011.4 0.0
18/03:00am 22.5 18.9 5.0 32 8.7 ESE 13 17 7 9 1011.5 1011.5 0.0
18/02:30am 20.5 18.5 10.3 52 5.5 SSE 11 13 6 7 1011.4 1011.4 0.0
18/02:00am 19.6 17.7 11.9 61 4.3 SSE 13 15 7 8 1011.4 1011.4 0.0
18/01:30am 20.8 19.3 13.0 61 4.4 SSW 13 15 7 8 1011.7 1011.7 0.0
18/01:00am 21.3 20.7 13.5 61 4.5 SW 9 13 5 7 1012.1 1012.1 0.0
18/12:30am 22.5 22.0 13.8 58 5.1 SW 9 15 5 8 1012.2 1012.2 0.0
18/12:00am 23.4 23.4 15.2 60 4.9 W 9 11 5 6 1012.0 1012.0 0.0
 
Date/Time
WST
Temp
°C
App
Temp
°C
Dew
Point
°C
Rel
Hum
%
Delta-T
°C
Wind Press
QNH
hPa
Press
MSL
hPa
Rain since
9am
mm
Dir  Spd
km/h
Gust
km/h
Spd
kts
Gust
kts
17/11:30pm 23.7 23.0 15.5 60 4.9 SW 13 19 7 10 1012.1 1012.1 0.0
17/11:00pm 25.2 23.5 15.8 56 5.7 WSW 19 24 10 13 1011.9 1011.9 0.0
17/10:30pm 25.9 23.1 15.3 52 6.4 WSW 24 30 13 16 1011.9 1011.9 0.0
17/10:00pm 25.8 23.8 16.4 56 5.8 WSW 22 30 12 16 1012.0 1012.0 0.0
17/09:30pm 26.0 23.3 16.5 55 5.9 W 26 32 14 17 1011.8 1011.8 0.0
17/09:00pm 26.5 23.2 16.1 52 6.4 W 28 37 15 20 1011.7 1011.7 0.0
17/08:30pm 27.1 23.7 15.8 50 6.9 W 28 41 15 22 1011.3 1011.3 0.0
17/08:00pm 27.2 23.5 14.9 47 7.4 W 28 35 15 19 1010.8 1010.8 0.0
17/07:30pm 27.8 23.1 14.4 43 8.1 W 32 43 17 23 1010.4 1010.4 0.0
17/07:00pm 28.2 24.2 16.1 47 7.5 WNW 32 41 17 22 1010.0 1010.0 0.0
17/06:30pm 28.9 24.9 16.8 48 7.6 WNW 33 46 18 25 1009.5 1009.5 0.0
17/06:00pm 30.4 25.9 13.7 36 10.0 WNW 30 37 16 20 1009.3 1009.3 0.0
17/05:30pm 32.2 26.7 11.9 29 11.9 WNW 32 39 17 21 1008.8 1008.8 0.0
17/05:00pm 34.2 26.9 7.3 19 14.9 WNW 35 46 19 25 1008.4 1008.4 0.0
17/04:30pm 35.0 27.7 8.7 20 14.9 WNW 37 46 20 25 1008.2 1008.2 0.0
17/04:00pm 35.5 28.1 8.3 19 15.4 WNW 37 44 20 24 1008.2 1008.2 0.0
17/03:30pm 35.7 28.3 8.5 19 15.4 WNW 37 46 20 25 1008.3 1008.3 0.0
17/03:00pm 36.9 29.0 6.0 15 17.0 WNW 37 46 20 25 1008.4 1008.4 0.0
17/02:59pm 36.8 28.8 5.9 15 16.9 NW 37 46 20 25 1008.5 1008.5 0.0
17/02:30pm 36.7 29.9 9.3 19 15.8 NNW 35 46 19 25 1008.9 1008.9 0.0
17/02:00pm 36.9 30.3 7.8 17 16.4 NNW 32 44 17 24 1009.3 1009.3 0.0
17/01:30pm 37.6 31.1 4.5 13 17.8 N 28 37 15 20 1009.7 1009.7 0.0
17/01:00pm 37.0 30.0 4.0 13 17.6 N 30 37 16 20 1010.1 1010.1 0.0
17/12:30pm 37.7 31.8 5.6 14 17.6 NNE 26 35 14 19 1010.4 1010.4 0.0
17/12:00pm 37.2 32.4 7.2 16 16.8 NE 22 39 12 21 1010.8 1010.8 0.0
17/11:30am 37.9 34.7 1.0 10 18.8 N 7 11 4 6 1011.5 1011.5 0.0
17/11:00am 36.9 33.1 1.6 11 18.1 SSW 11 17 6 9 1012.1 1012.1 0.0
17/10:30am 36.5 32.1 2.5 12 17.6 S 15 26 8 14 1012.4 1012.4 0.0
17/10:00am 35.0 31.5 3.5 14 16.5 S 11 19 6 10 1012.8 1012.8 0.0
17/09:30am 33.9 30.3 2.7 14 16.0 S 11 15 6 8 1013.0 1013.0 0.0
17/09:00am 32.7 30.1 6.1 19 14.3 SW 9 15 5 8 1012.9 1012.9 0.0
17/08:30am 31.1 28.4 7.5 23 12.9 SW 11 13 6 7 1012.7 1012.7 0.0
17/08:00am 29.1 26.5 7.7 26 11.6 SW 11 13 6 7 1012.6 1012.6 0.0
17/07:30am 27.3 25.3 10.1 34 9.6 WSW 11 13 6 7 1012.3 1012.3 0.0
17/07:29am 27.2 25.2 10.0 34 9.6 WSW 11 13 6 7 1012.3 1012.3 0.0
17/07:00am 22.2 23.3 15.5 66 4.0 WSW 4 6 2 3 1012.1 1012.1 0.0
17/06:30am 20.1 20.6 15.5 75 2.7 WSW 7 9 4 5 1011.8 1011.8 0.0
17/06:00am 19.2 19.9 15.5 79 2.2 WSW 6 7 3 4 1011.5 1011.5 0.0
17/05:30am 19.1 21.0 15.8 81 2.0 CALM 0 0 0 0 1011.5 1011.5 0.0
17/05:00am 19.6 20.4 16.3 81 2.0 WSW 7 7 4 4 1011.0 1011.0 0.0
17/04:30am 19.9 20.6 16.2 79 2.2 SW 7 9 4 5 1010.8 1010.8 0.0
17/04:00am 20.9 21.5 15.9 73 3.0 W 7 9 4 5 1010.7 1010.7 0.0
17/03:30am 23.7 23.6 17.0 66 4.1 W 13 15 7 8 1010.7 1010.7 0.0
17/03:00am 23.7 24.4 17.9 70 3.6 W 11 15 6 8 1010.8 1010.8 0.0
17/02:30am 23.2 23.7 18.3 74 3.1 W 13 15 7 8 1010.9 1010.9 0.0
17/02:00am 23.3 23.9 18.6 75 3.0 NW 13 17 7 9 1011.4 1011.4 0.0
17/01:30am 24.6 24.6 17.3 64 4.5 SW 13 15 7 8 1011.5 1011.5 0.0
17/01:00am 26.1 25.5 16.6 55 5.9 WSW 15 20 8 11 1011.8 1011.8 0.0
17/12:30am 25.6 25.1 19.0 67 4.2 W 20 24 11 13 1012.2 1012.2 0.0
17/12:00am 25.3 26.2 19.2 69 3.9 W 13 19 7 10 1012.7 1012.7 0.0
 
Date/Time
WST
Temp
°C
App
Temp
°C
Dew
Point
°C
Rel
Hum
%
Delta-T
°C
Wind Press
QNH
hPa
Press
MSL
hPa
Rain since
9am
mm
Dir  Spd
km/h
Gust
km/h
Spd
kts
Gust
kts
16/11:30pm 25.5 26.5 19.4 69 3.9 WSW 13 15 7 8 1013.3 1013.3 0.0
16/11:00pm 25.6 25.9 18.8 66 4.3 WNW 15 20 8 11 1013.6 1013.5 0.0
16/10:30pm 26.0 25.9 18.7 64 4.7 WNW 17 20 9 11 1013.4 1013.4 0.0
16/10:00pm 26.3 26.1 18.4 61 5.0 NW 17 20 9 11 1013.6 1013.5 0.0
16/09:30pm 26.6 25.7 17.7 58 5.6 WNW 19 22 10 12 1013.4 1013.4 0.0
16/09:00pm 26.9 25.3 15.0 48 7.2 WNW 17 22 9 12 1013.4 1013.4 0.0
16/08:30pm 27.1 25.8 14.8 47 7.4 WNW 15 17 8 9 1012.7 1012.7 0.0
16/08:00pm 27.8 27.1 17.3 52 6.6 W 17 22 9 12 1012.5 1012.5 0.0
16/07:30pm 28.4 27.5 18.2 54 6.5 WNW 20 26 11 14 1012.3 1012.3 0.0
16/07:00pm 28.8 28.4 18.0 52 6.9 WNW 17 20 9 11 1011.8 1011.8 0.0
16/06:30pm 29.6 28.7 18.1 50 7.4 WNW 20 24 11 13 1011.3 1011.3 0.0
16/06:00pm 30.9 29.2 15.7 39 9.4 NW 19 24 10 13 1011.1 1011.1 0.0
16/05:30pm 32.6 29.8 14.2 32 11.2 NW 22 24 12 13 1010.8 1010.8 0.0
16/05:00pm 34.4 31.6 13.3 28 12.8 NNW 20 24 11 13 1010.5 1010.5 0.0
16/04:30pm 34.7 31.3 12.4 26 13.4 NNW 22 26 12 14 1010.5 1010.5 0.0
16/04:00pm 35.7 32.5 12.0 24 14.2 NNW 20 26 11 14 1010.6 1010.6 0.0
16/03:30pm 35.3 32.0 14.0 28 13.1 N 24 30 13 16 1010.5 1010.5 0.0
16/03:00pm 36.4 32.7 13.8 26 13.9 N 26 32 14 17 1010.7 1010.7 0.0
16/02:30pm 37.2 33.1 13.9 25 14.4 N 28 33 15 18 1010.7 1010.7 0.0
16/02:00pm 38.7 32.9 6.4 14 18.0 N 26 33 14 18 1011.1 1011.1 0.0
16/01:30pm 38.6 32.5 2.9 11 18.9 NNE 24 30 13 16 1011.4 1011.4 0.0
16/01:00pm 38.7 33.9 7.4 15 17.7 NNE 22 28 12 15 1011.9 1011.9 0.0
16/12:30pm 38.7 34.5 8.4 16 17.4 NNE 20 28 11 15 1012.2 1012.2 0.0
16/12:00pm 38.3 34.1 3.9 12 18.4 NNE 15 24 8 13 1012.8 1012.8 0.0
16/11:30am 38.7 35.9 8.4 16 17.4 NNE 13 20 7 11 1013.2 1013.2 0.0
16/11:00am 37.1 35.6 13.2 24 14.6 NNE 13 20 7 11 1013.8 1013.7 0.0
16/10:30am 37.3 35.4 10.6 20 15.7 NE 11 19 6 10 1014.0 1013.9 0.0
16/10:00am 37.3 33.0 3.1 12 18.0 SE 15 20 8 11 1014.4 1014.3 0.0
16/09:30am 36.8 33.2 4.9 14 17.2 SE 13 20 7 11 1014.6 1014.5 0.0
16/09:00am 35.4 30.6 4.8 15 16.3 SE 19 24 10 13 1014.8 1014.7 0.0
16/08:30am 31.8 30.5 9.3 25 12.7 SSE 6 9 3 5 1014.8 1014.7 0.0
16/08:00am 27.9 28.2 11.0 35 9.6 CALM 0 0 0 0 1014.7 1014.6 0.0
16/07:30am 25.5 26.0 11.7 42 7.9 CALM 0 0 0 0 1014.4 1014.3 0.0
16/07:00am 21.9 22.8 13.0 57 5.1 CALM 0 0 0 0 1014.1 1014.0 0.0
16/06:30am 18.9 19.4 11.7 63 4.0 CALM 0 0 0 0 1013.8 1013.7 0.0
16/06:00am 18.9 19.4 11.7 63 4.0 CALM 0 0 0 0 1013.7 1013.6 0.0
16/05:30am 18.7 19.5 12.5 67 3.5 CALM 0 0 0 0 1013.4 1013.4 0.0

Other formats

Comma delimited format used in spreadsheet applications
http://www.bom.gov.au/fwo/IDW60801/IDW60801.94308.axf

JavaScript Object Notation format (JSON) in row-major order
http://www.bom.gov.au/fwo/IDW60801/IDW60801.94308.json

Data quality

Most of these data are generated automatically and are frequently updated. Quality checks on data are not normally performed. It is possible for incorrect values to appear. Refer to information at About Latest Weather Observations and please check the disclaimer before using these data.